Time;durP1;ratioP1;P1;durP2;ratioP2;P2;SDS_P1;SDS_P2;PMS_P1;PMS_P2;Temp;Humidity;BMP_temperature;BMP_pressure;BME280_temperature;BME280_humidity;BME280_pressure;Samples;Min_cycle;Max_cycle;Signal;HPM_P1;HPM_P2
2023/12/16 00:00:59;;;;;;;0.50;0.50;;;;;;;2.89;89.77;100785.47;5051290;28;20366;-40
2023/12/16 00:03:25;;;;;;;0.90;0.60;;;;;;;2.77;90.04;100797.00;5051209;28;20033;-40
2023/12/16 00:05:50;;;;;;;1.50;0.60;;;;;;;2.86;91.02;100804.13;5051183;28;20035;-40
2023/12/16 00:08:16;;;;;;;2.45;0.63;;;;;;;2.84;89.19;100799.00;5050940;28;20029;-37
2023/12/16 00:10:41;;;;;;;0.68;0.65;;;;;;;2.91;88.22;100807.19;5050915;28;20033;-39
2023/12/16 00:13:07;;;;;;;0.70;0.70;;;;;;;2.59;90.12;100810.72;5051060;28;20029;-40
2023/12/16 00:15:34;;;;;;;0.77;0.63;;;;;;;2.50;90.43;100822.78;5051067;28;20027;-39
2023/12/16 00:18:00;;;;;;;0.68;0.65;;;;;;;2.42;90.84;100819.09;5051396;28;20041;-40
2023/12/16 00:20:25;;;;;;;0.60;0.60;;;;;;;2.40;90.27;100814.00;5051426;28;20043;-40
2023/12/16 00:22:51;;;;;;;0.60;0.60;;;;;;;2.11;92.43;100818.94;5050862;28;20120;-39
2023/12/16 00:25:16;;;;;;;0.90;0.70;;;;;;;2.07;92.51;100820.97;5048556;28;20032;-40
2023/12/16 00:27:41;;;;;;;0.77;0.60;;;;;;;1.89;93.83;100822.47;5049555;28;20469;-40
2023/12/16 00:30:08;;;;;;;0.75;0.73;;;;;;;1.97;92.51;100827.09;5049557;28;20033;-39
2023/12/16 00:32:33;;;;;;;0.63;0.63;;;;;;;1.98;93.21;100821.75;5047981;28;20053;-40
2023/12/16 00:34:58;;;;;;;0.73;0.73;;;;;;;1.83;92.70;100820.28;5050299;28;20059;-40
2023/12/16 00:37:24;;;;;;;1.00;0.82;;;;;;;1.75;92.64;100828.78;5050617;28;20053;-40
2023/12/16 00:39:49;;;;;;;0.63;0.60;;;;;;;1.69;93.44;100831.88;5050450;28;20397;-40
2023/12/16 00:42:15;;;;;;;1.20;0.80;;;;;;;1.87;93.89;100827.81;5050464;28;20021;-40
2023/12/16 00:44:40;;;;;;;0.82;0.75;;;;;;;1.84;93.75;100837.72;5050416;28;20029;-40
2023/12/16 00:47:06;;;;;;;0.70;0.65;;;;;;;1.98;93.92;100832.25;5050440;28;20108;-40
2023/12/16 00:49:31;;;;;;;1.08;0.88;;;;;;;1.88;92.75;100832.09;5050288;28;20064;-40
2023/12/16 00:51:57;;;;;;;1.05;0.80;;;;;;;1.99;93.11;100838.31;5050612;28;20036;-39
2023/12/16 00:54:23;;;;;;;0.80;0.80;;;;;;;1.89;92.23;100839.03;5050136;28;20032;-40
2023/12/16 00:56:49;;;;;;;1.13;0.90;;;;;;;1.82;93.92;100842.25;5050169;28;20520;-40
2023/12/16 00:59:18;;;;;;;1.60;0.90;;;;;;;1.66;94.18;100845.25;5049846;28;20064;-40
2023/12/16 01:01:43;;;;;;;1.05;0.95;;;;;;;1.82;94.60;100835.22;5050359;28;20025;-41
2023/12/16 01:04:11;;;;;;;1.20;0.88;;;;;;;1.76;93.20;100840.94;5050313;28;20384;-41
2023/12/16 01:06:37;;;;;;;0.93;0.80;;;;;;;1.66;94.66;100840.00;5050265;28;20031;-40
2023/12/16 01:09:03;;;;;;;1.33;1.17;;;;;;;1.66;94.50;100838.22;5050391;28;20103;-41
2023/12/16 01:11:28;;;;;;;0.88;0.70;;;;;;;1.74;94.03;100848.13;5049931;28;20537;-40
2023/12/16 01:13:53;;;;;;;1.85;0.93;;;;;;;1.75;94.09;100841.91;5049926;28;20107;-40
2023/12/16 01:16:19;;;;;;;1.08;0.95;;;;;;;1.93;93.53;100839.63;5050801;28;20040;-41
2023/12/16 01:18:45;;;;;;;1.00;0.80;;;;;;;2.13;90.78;100828.41;5052977;28;20025;-41
2023/12/16 01:21:10;;;;;;;1.10;0.90;;;;;;;2.10;90.79;100831.25;5054162;28;20112;-40
2023/12/16 01:23:36;;;;;;;1.10;1.00;;;;;;;2.37;89.88;100839.69;5054048;28;20473;-40
2023/12/16 01:26:03;;;;;;;1.35;1.10;;;;;;;2.46;88.05;100837.16;5054099;28;20029;-41
2023/12/16 01:28:29;;;;;;;1.30;1.00;;;;;;;2.52;87.70;100827.94;5054078;28;20103;-41
2023/12/16 01:30:54;;;;;;;1.10;0.90;;;;;;;2.53;88.09;100838.31;5054186;28;20023;-41
2023/12/16 01:33:20;;;;;;;1.35;1.00;;;;;;;2.60;87.59;100833.38;5053953;28;20044;-41
2023/12/16 01:35:45;;;;;;;1.30;1.00;;;;;;;2.91;85.88;100838.75;5054298;28;20108;-41
2023/12/16 01:38:11;;;;;;;1.27;1.08;;;;;;;2.72;85.48;100826.28;5053802;28;20047;-42
2023/12/16 01:40:37;;;;;;;1.38;1.02;;;;;;;2.66;86.23;100840.75;5053997;28;20017;-43
2023/12/16 01:43:07;;;;;;;1.10;0.93;;;;;;;2.62;87.18;100836.72;5054063;28;20020;-41
2023/12/16 01:45:32;;;;;;;1.20;0.90;;;;;;;2.99;84.09;100833.72;5054345;28;20149;-40
2023/12/16 01:47:59;;;;;;;0.90;0.77;;;;;;;3.10;83.27;100840.69;5053983;28;20025;-40
2023/12/16 01:50:26;;;;;;;0.85;0.70;;;;;;;3.07;83.51;100844.41;5053993;28;20029;-41
2023/12/16 01:52:53;;;;;;;1.15;1.02;;;;;;;3.27;82.90;100847.16;5053462;28;20079;-41
2023/12/16 01:55:19;;;;;;;1.48;0.98;;;;;;;3.15;82.01;100840.31;5053861;28;20108;-40
2023/12/16 01:57:46;;;;;;;1.65;1.23;;;;;;;3.25;82.26;100841.19;5053547;28;20377;-41
2023/12/16 02:00:12;;;;;;;1.45;1.23;;;;;;;3.35;81.29;100846.53;5053645;28;20021;-41
2023/12/16 02:02:39;;;;;;;2.08;1.20;;;;;;;3.25;80.99;100857.00;5053805;28;20380;-41
2023/12/16 02:05:06;;;;;;;3.50;1.40;;;;;;;3.34;80.74;100850.97;5053538;28;20021;-41
2023/12/16 02:07:31;;;;;;;1.70;1.33;;;;;;;3.21;80.57;100847.69;5054059;28;20021;-41
2023/12/16 02:09:57;;;;;;;2.45;1.40;;;;;;;3.15;81.17;100854.28;5054181;28;20134;-42
2023/12/16 02:12:22;;;;;;;1.88;1.48;;;;;;;3.00;81.75;100847.69;5054350;28;20036;-41
2023/12/16 02:14:48;;;;;;;2.58;1.38;;;;;;;2.83;82.37;100852.53;5054029;28;20021;-41
2023/12/16 02:17:13;;;;;;;2.60;1.73;;;;;;;3.05;82.09;100856.03;5054109;28;20028;-41
2023/12/16 02:19:39;;;;;;;2.70;1.63;;;;;;;2.93;81.92;100863.13;5053905;28;20443;-43
2023/12/16 02:22:04;;;;;;;2.03;1.70;;;;;;;2.76;82.40;100868.94;5053804;28;20025;-41
2023/12/16 02:24:31;;;;;;;3.58;2.20;;;;;;;2.51;82.72;100866.53;5053737;28;20017;-41
2023/12/16 02:26:57;;;;;;;3.75;2.40;;;;;;;2.10;85.21;100861.94;5053660;28;20051;-41
2023/12/16 02:29:22;;;;;;;4.45;2.83;;;;;;;2.03;86.21;100871.25;5053418;28;20056;-42
2023/12/16 02:31:47;;;;;;;5.72;3.30;;;;;;;2.09;85.51;100866.34;5053562;28;20028;-41
2023/12/16 02:34:13;;;;;;;5.47;3.65;;;;;;;2.35;86.17;100866.06;5053227;28;20095;-42
2023/12/16 02:36:38;;;;;;;6.38;3.85;;;;;;;2.98;87.19;100866.22;5056880;28;20036;-41
2023/12/16 02:39:04;;;;;;;6.85;4.28;;;;;;;3.51;86.13;100870.59;5033473;28;20123;-41
2023/12/16 02:41:29;;;;;;;6.88;4.38;;;;;;;3.90;84.77;100876.03;5033891;28;20021;-43
2023/12/16 02:43:54;;;;;;;7.93;4.50;;;;;;;4.11;83.46;100875.97;5033511;28;20383;-42
2023/12/16 02:46:20;;;;;;;6.28;3.95;;;;;;;3.45;87.40;100879.00;5033343;28;20021;-42
2023/12/16 02:48:45;;;;;;;5.85;3.85;;;;;;;2.76;87.40;100884.72;5049507;28;20104;-42
2023/12/16 02:51:18;;;;;;;6.35;3.78;;;;;;;2.27;90.31;100892.13;5053047;28;20473;-41
2023/12/16 02:53:44;;;;;;;5.68;3.70;;;;;;;2.15;90.16;100901.78;5053177;28;20370;-41
2023/12/16 02:56:10;;;;;;;6.25;3.70;;;;;;;2.83;89.38;100901.66;5051397;28;20315;-41
2023/12/16 02:58:35;;;;;;;5.93;3.30;;;;;;;2.64;89.89;100903.13;5053365;28;20094;-41
2023/12/16 03:01:01;;;;;;;4.30;2.92;;;;;;;2.31;89.70;100901.44;5053042;28;20024;-41
2023/12/16 03:03:26;;;;;;;4.15;2.65;;;;;;;2.32;90.18;100901.31;5053015;28;20104;-41
2023/12/16 03:05:51;;;;;;;3.78;2.60;;;;;;;2.74;89.07;100900.59;5053046;28;20028;-41
2023/12/16 03:08:17;;;;;;;3.55;2.50;;;;;;;2.47;90.77;100901.03;5053004;28;20086;-42
2023/12/16 03:10:42;;;;;;;3.60;2.33;;;;;;;2.00;89.79;100909.09;5052671;28;20025;-41
2023/12/16 03:13:08;;;;;;;3.33;2.33;;;;;;;1.60;92.00;100895.56;5052617;28;20366;-41
2023/12/16 03:15:33;;;;;;;3.97;2.60;;;;;;;1.79;94.27;100882.72;5038284;28;20128;-41
2023/12/16 03:17:58;;;;;;;3.88;2.65;;;;;;;2.46;91.92;100918.59;5032934;28;20033;-43
2023/12/16 03:20:24;;;;;;;3.70;2.33;;;;;;;2.15;93.05;100912.28;5032732;28;20304;-41
2023/12/16 03:22:49;;;;;;;3.00;2.38;;;;;;;2.04;94.34;100914.94;5032905;28;20032;-41
2023/12/16 03:25:15;;;;;;;3.35;2.38;;;;;;;1.92;93.18;100916.72;5032633;28;20018;-41
2023/12/16 03:27:40;;;;;;;2.90;2.10;;;;;;;1.80;92.80;100923.75;5032291;28;20029;-42
2023/12/16 03:30:06;;;;;;;2.67;2.20;;;;;;;1.67;93.63;100928.25;5032644;28;20030;-42
2023/12/16 03:32:31;;;;;;;2.80;2.17;;;;;;;1.82;93.02;100932.34;5032206;28;20094;-41
2023/12/16 03:34:57;;;;;;;2.45;2.05;;;;;;;1.62;93.36;100930.41;5032656;28;20112;-41
2023/12/16 03:37:22;;;;;;;3.47;2.35;;;;;;;1.84;93.38;100938.31;5032501;28;20029;-41
2023/12/16 03:39:48;;;;;;;3.33;2.17;;;;;;;1.80;92.91;100943.91;5032222;28;20036;-41
2023/12/16 03:42:13;;;;;;;3.50;2.33;;;;;;;1.64;93.81;100941.59;5032370;28;20465;-43
2023/12/16 03:44:38;;;;;;;4.10;2.75;;;;;;;1.83;93.67;100949.78;5032163;28;20028;-42
2023/12/16 03:47:04;;;;;;;3.08;2.30;;;;;;;1.87;92.43;100956.47;5034068;28;20021;-41
2023/12/16 03:49:29;;;;;;;3.42;2.20;;;;;;;1.90;92.12;100958.84;5052230;28;20057;-42
2023/12/16 03:51:56;;;;;;;3.75;2.60;;;;;;;1.82;92.40;100960.38;5051855;28;20377;-42
2023/12/16 03:54:22;;;;;;;3.63;2.70;;;;;;;1.66;92.38;100964.19;5051597;28;20060;-41
2023/12/16 03:56:47;;;;;;;4.55;2.90;;;;;;;1.83;91.99;100962.91;5052292;28;20020;-42
2023/12/16 03:59:12;;;;;;;4.22;2.50;;;;;;;1.74;92.13;100968.84;5052256;28;20029;-42
2023/12/16 04:01:44;;;;;;;3.85;2.58;;;;;;;1.94;91.23;100973.41;5052410;28;20346;-41
2023/12/16 04:04:09;;;;;;;4.18;2.80;;;;;;;1.97;89.67;100963.63;5051611;28;20025;-42
2023/12/16 04:06:34;;;;;;;4.07;2.60;;;;;;;2.23;88.59;100967.72;5051181;28;20551;-42
2023/12/16 04:09:00;;;;;;;4.68;2.90;;;;;;;2.16;88.44;100969.13;5051808;28;20021;-41
2023/12/16 04:11:25;;;;;;;4.53;2.80;;;;;;;2.40;87.17;100973.41;5051361;28;20303;-42
2023/12/16 04:13:50;;;;;;;4.75;3.03;;;;;;;2.44;87.30;100988.00;5051561;28;20021;-41
2023/12/16 04:16:16;;;;;;;5.25;3.15;;;;;;;2.25;86.56;100976.31;5051818;28;20392;-41
2023/12/16 04:18:41;;;;;;;5.03;3.10;;;;;;;2.62;85.25;100983.91;5051199;28;20478;-42
2023/12/16 04:21:07;;;;;;;4.50;3.05;;;;;;;2.43;85.91;100986.31;5051258;28;20108;-42
2023/12/16 04:23:32;;;;;;;5.40;3.30;;;;;;;2.80;84.08;100997.41;5051758;28;20032;-41
2023/12/16 04:25:58;;;;;;;3.97;2.85;;;;;;;2.64;84.73;100992.50;5051540;28;20104;-42
2023/12/16 04:28:23;;;;;;;4.45;3.17;;;;;;;2.84;82.63;101005.88;5051335;28;20517;-42
2023/12/16 04:30:48;;;;;;;6.05;3.80;;;;;;;2.80;83.00;100996.53;5051138;28;20071;-42
2023/12/16 04:33:14;;;;;;;5.45;3.72;;;;;;;2.72;82.14;100995.38;5051012;28;20045;-42
2023/12/16 04:35:39;;;;;;;5.38;3.45;;;;;;;2.96;81.45;101012.78;5051224;28;20039;-42
2023/12/16 04:38:04;;;;;;;5.32;3.38;;;;;;;2.96;81.10;101007.53;5050530;28;20359;-41
2023/12/16 04:40:30;;;;;;;6.05;3.55;;;;;;;2.60;83.09;101014.75;5051070;28;20044;-42
2023/12/16 04:42:55;;;;;;;4.93;3.30;;;;;;;2.65;82.65;101017.03;5050981;28;20483;-41
2023/12/16 04:45:20;;;;;;;6.25;3.90;;;;;;;2.42;83.12;101017.03;5051316;28;20025;-42
2023/12/16 04:47:46;;;;;;;5.63;3.72;;;;;;;2.59;83.12;101020.97;5051295;28;20044;-43
2023/12/16 04:50:11;;;;;;;5.38;3.83;;;;;;;2.74;81.75;101021.53;5050948;28;20089;-42
2023/12/16 04:52:37;;;;;;;5.68;3.85;;;;;;;2.38;83.33;101033.13;5049980;28;20025;-42
2023/12/16 04:55:03;;;;;;;5.25;3.47;;;;;;;2.41;83.63;101038.16;5051175;28;20155;-42
2023/12/16 04:57:28;;;;;;;5.03;3.40;;;;;;;2.14;84.00;101044.59;5050932;28;20029;-42
2023/12/16 04:59:54;;;;;;;4.68;3.00;;;;;;;2.07;85.36;101040.75;5050069;28;20358;-42
2023/12/16 05:02:19;;;;;;;4.78;3.45;;;;;;;1.74;86.03;101051.03;5050937;28;20024;-41
2023/12/16 05:04:44;;;;;;;5.07;3.38;;;;;;;1.66;87.04;101048.16;5050971;28;20029;-42
2023/12/16 05:07:10;;;;;;;4.95;3.80;;;;;;;2.32;89.05;101061.56;5050791;28;20035;-41
2023/12/16 05:09:35;;;;;;;6.28;4.13;;;;;;;2.87;88.34;101060.84;5050662;28;20113;-42
2023/12/16 05:12:00;;;;;;;7.15;4.20;;;;;;;3.51;86.08;101054.84;5050725;28;20033;-42
2023/12/16 05:14:26;;;;;;;6.72;4.18;;;;;;;4.02;84.25;101066.47;5050705;28;20449;-42
2023/12/16 05:16:53;;;;;;;5.88;4.25;;;;;;;4.00;86.86;101068.34;5050552;28;20031;-42
2023/12/16 05:19:18;;;;;;;5.95;3.95;;;;;;;3.00;86.62;101066.81;5050652;28;20025;-42
2023/12/16 05:21:43;;;;;;;4.88;3.63;;;;;;;2.45;87.93;101058.81;5051076;28;20296;-43
2023/12/16 05:24:09;;;;;;;5.72;3.50;;;;;;;1.95;89.68;101053.84;5050696;28;20023;-42
2023/12/16 05:26:34;;;;;;;4.68;3.47;;;;;;;1.78;91.72;101062.16;5050915;28;20021;-42
2023/12/16 05:29:00;;;;;;;6.63;3.85;;;;;;;2.67;90.21;101062.41;5050512;28;20067;-42
2023/12/16 05:31:25;;;;;;;6.78;4.53;;;;;;;2.18;91.53;101063.56;5050855;28;20029;-42
2023/12/16 05:33:50;;;;;;;6.30;4.00;;;;;;;1.76;91.64;101075.38;5050535;28;20509;-42
2023/12/16 05:36:16;;;;;;;9.40;5.20;;;;;;;2.44;90.98;101074.72;5050499;28;20036;-42
2023/12/16 05:38:41;;;;;;;6.95;4.30;;;;;;;2.27;91.67;101074.22;5050450;28;20063;-42
2023/12/16 05:41:11;;;;;;;7.72;5.00;;;;;;;1.92;91.30;101074.25;5050805;28;20017;-42
2023/12/16 05:43:37;;;;;;;8.15;4.90;;;;;;;2.01;91.33;101068.31;5050489;28;20024;-42
2023/12/16 05:46:02;;;;;;;7.45;4.82;;;;;;;2.45;90.25;101066.69;5050630;28;20048;-42
2023/12/16 05:48:28;;;;;;;7.18;4.03;;;;;;;2.07;91.37;101065.22;5050198;28;20031;-42
2023/12/16 05:50:53;;;;;;;6.78;4.10;;;;;;;1.64;91.64;101080.69;5050394;28;20182;-43
2023/12/16 05:53:19;;;;;;;6.72;4.05;;;;;;;1.46;91.74;101083.72;5050389;28;20041;-42
2023/12/16 05:55:47;;;;;;;6.13;4.13;;;;;;;2.46;97.78;101091.22;5050628;28;20091;-42
2023/12/16 05:58:12;;;;;;;5.47;3.50;;;;;;;3.33;92.09;101086.09;5049960;28;20100;-42
2023/12/16 06:00:38;;;;;;;6.50;3.97;;;;;;;2.54;90.27;101092.28;5050357;28;20103;-43
2023/12/16 06:03:03;;;;;;;5.28;3.40;;;;;;;1.93;90.49;101099.56;5051309;28;20035;-43
2023/12/16 06:05:28;;;;;;;6.20;3.67;;;;;;;1.69;91.95;101096.94;5053277;28;20481;-42
2023/12/16 06:07:54;;;;;;;6.57;4.20;;;;;;;1.57;91.98;101111.81;5053425;28;20198;-43
2023/12/16 06:10:19;;;;;;;9.23;5.20;;;;;;;2.02;93.83;101105.91;5053855;28;20091;-42
2023/12/16 06:12:45;;;;;;;9.00;5.30;;;;;;;2.76;90.33;101116.91;5053788;28;20233;-42
2023/12/16 06:15:10;;;;;;;9.35;5.03;;;;;;;2.20;92.08;101120.28;5052152;28;20052;-43
2023/12/16 06:17:36;;;;;;;6.82;3.85;;;;;;;1.82;92.98;101129.22;5051360;28;20425;-42
2023/12/16 06:20:01;;;;;;;6.72;3.70;;;;;;;1.58;93.09;101104.78;5038053;28;20021;-43
2023/12/16 06:22:27;;;;;;;6.13;4.18;;;;;;;1.66;92.43;101144.44;5053938;28;20024;-43
2023/12/16 06:24:52;;;;;;;7.15;4.10;;;;;;;1.48;93.10;101142.16;5054050;28;20060;-42
2023/12/16 06:27:18;;;;;;;6.97;4.47;;;;;;;1.44;94.32;101143.34;5053932;28;20036;-42
2023/12/16 06:29:43;;;;;;;9.77;5.25;;;;;;;1.55;94.11;101146.03;5054037;28;20053;-43
2023/12/16 06:32:08;;;;;;;10.07;6.07;;;;;;;1.64;93.52;101148.94;5053588;28;20506;-42
2023/12/16 06:34:34;;;;;;;8.73;5.65;;;;;;;1.76;92.44;101158.56;5053512;28;20055;-42
2023/12/16 06:36:59;;;;;;;9.07;5.22;;;;;;;1.56;93.12;101163.47;5053303;28;20029;-43
2023/12/16 06:39:24;;;;;;;9.82;5.97;;;;;;;1.73;92.11;101166.63;5053222;28;20354;-42
2023/12/16 06:41:50;;;;;;;10.88;6.35;;;;;;;1.78;91.47;101169.78;5053126;28;20159;-43
2023/12/16 06:44:15;;;;;;;9.55;5.82;;;;;;;1.73;91.96;101180.63;5053439;28;20057;-42
2023/12/16 06:46:41;;;;;;;10.52;6.13;;;;;;;1.84;91.44;101189.50;5053831;28;20112;-42
2023/12/16 06:49:06;;;;;;;9.32;5.30;;;;;;;2.02;91.08;101197.81;5053624;28;20053;-42
2023/12/16 06:51:31;;;;;;;7.65;5.13;;;;;;;1.81;91.37;101192.31;5053896;28;20075;-42
2023/12/16 06:53:57;;;;;;;9.57;6.00;;;;;;;2.09;89.37;101202.50;5052889;28;20032;-42
2023/12/16 06:56:22;;;;;;;9.98;5.45;;;;;;;1.87;90.59;101202.41;5052760;28;20024;-42
2023/12/16 06:58:48;;;;;;;9.45;5.93;;;;;;;2.15;89.98;101207.31;5052309;28;20021;-42
2023/12/16 07:01:13;;;;;;;8.95;5.47;;;;;;;1.93;91.19;101197.53;5052221;28;20009;-41
2023/12/16 07:03:39;;;;;;;10.32;5.70;;;;;;;2.21;91.25;101215.66;5050955;28;20013;-43
2023/12/16 07:06:05;;;;;;;9.85;5.93;;;;;;;2.25;89.95;101223.22;5052277;28;20021;-43
2023/12/16 07:08:30;;;;;;;9.07;5.88;;;;;;;2.60;89.97;101226.81;5051934;28;20029;-43
2023/12/16 07:10:56;;;;;;;13.38;6.60;;;;;;;2.50;89.58;101216.16;5049292;28;20028;-43
2023/12/16 07:13:21;;;;;;;12.52;6.55;;;;;;;2.48;91.60;101239.91;5051456;28;21301;-41
2023/12/16 07:15:47;;;;;;;11.70;6.35;;;;;;;2.33;91.40;101241.88;5047701;28;20048;-42
2023/12/16 07:18:12;;;;;;;12.57;7.22;;;;;;;2.35;91.91;101249.66;5051867;28;20480;-42
2023/12/16 07:20:37;;;;;;;11.30;6.95;;;;;;;3.66;99.51;101251.03;5051773;28;20029;-42
2023/12/16 07:23:04;;;;;;;11.35;7.00;;;;;;;3.09;91.76;101250.22;5052024;28;20028;-43
2023/12/16 07:25:33;;;;;;;12.98;7.70;;;;;;;4.09;97.11;101259.91;5036929;28;20335;-42
2023/12/16 07:27:58;;;;;;;13.90;7.38;;;;;;;3.03;90.85;101260.38;5031549;28;20094;-42
2023/12/16 07:30:23;;;;;;;12.98;7.18;;;;;;;2.60;92.37;101261.81;5031390;28;20108;-42
2023/12/16 07:32:49;;;;;;;12.68;7.35;;;;;;;2.28;93.30;101265.03;5035176;28;20387;-42
2023/12/16 07:35:15;;;;;;;13.88;7.78;;;;;;;2.29;92.81;101265.88;5050820;28;20032;-42
2023/12/16 07:37:41;;;;;;;13.13;7.35;;;;;;;2.11;93.29;101262.78;5050714;28;20079;-43
2023/12/16 07:40:08;;;;;;;13.10;7.18;;;;;;;2.15;92.19;101265.09;5051701;28;20017;-41
2023/12/16 07:42:35;;;;;;;11.70;7.10;;;;;;;2.72;95.20;101270.56;5051763;28;20021;-43
2023/12/16 07:45:01;;;;;;;12.00;6.85;;;;;;;2.46;91.91;101275.97;5051564;28;20024;-43
2023/12/16 07:47:26;;;;;;;10.88;6.43;;;;;;;2.48;91.10;101273.25;5051665;28;20033;-44
2023/12/16 07:49:51;;;;;;;11.88;6.93;;;;;;;2.36;91.49;101277.59;5051065;28;20397;-44
2023/12/16 07:52:17;;;;;;;11.50;7.30;;;;;;;2.32;92.16;101281.41;5051151;28;20099;-42
2023/12/16 07:54:42;;;;;;;15.50;7.95;;;;;;;2.30;93.59;101286.78;5052180;28;20024;-43
2023/12/16 07:57:07;;;;;;;16.17;7.75;;;;;;;3.31;91.72;101290.63;5052325;28;20025;-41
2023/12/16 07:59:33;;;;;;;16.25;7.90;;;;;;;3.95;88.57;101297.91;5051779;28;20053;-43
2023/12/16 08:01:59;;;;;;;14.63;8.35;;;;;;;4.38;87.50;101301.50;5051665;28;20028;-43
2023/12/16 08:04:25;;;;;;;16.23;8.25;;;;;;;4.79;85.14;101300.75;5045706;28;20051;-43
2023/12/16 08:06:53;;;;;;;15.05;8.40;;;;;;;4.25;83.70;101299.88;5051982;28;20477;-28
2023/12/16 08:09:18;;;;;;;14.45;7.88;;;;;;;3.43;87.87;101308.13;5066915;28;20025;-30
2023/12/16 08:11:44;;;;;;;14.40;7.97;;;;;;;3.07;89.79;101309.16;5051951;28;20116;-28
2023/12/16 08:14:09;;;;;;;11.27;6.28;;;;;;;2.87;90.54;101315.91;5051968;28;20031;-28
2023/12/16 08:16:37;;;;;;;9.80;6.55;;;;;;;2.84;93.11;101318.78;5051581;28;20032;-28
2023/12/16 08:19:02;;;;;;;11.07;6.20;;;;;;;3.25;91.40;101318.25;5050784;28;20025;-27
2023/12/16 08:21:28;;;;;;;10.35;5.90;;;;;;;2.77;92.28;101331.53;5050445;28;20027;-28
2023/12/16 08:23:53;;;;;;;8.93;5.60;;;;;;;2.50;93.33;101327.34;5050444;28;20221;-28
2023/12/16 08:26:18;;;;;;;8.77;4.78;;;;;;;2.48;93.64;101328.44;5050018;28;20427;-28
2023/12/16 08:28:44;;;;;;;9.73;5.53;;;;;;;2.58;93.55;101329.44;5050455;28;20021;-28
2023/12/16 08:31:09;;;;;;;9.68;5.45;;;;;;;3.43;92.50;101342.34;5050742;28;20105;-29
2023/12/16 08:33:35;;;;;;;10.38;5.70;;;;;;;2.94;92.33;101335.53;5050504;28;20053;-28
2023/12/16 08:36:01;;;;;;;7.60;4.75;;;;;;;2.78;93.47;101338.47;5051570;28;20041;-28
2023/12/16 08:38:27;;;;;;;8.90;5.10;;;;;;;2.61;93.94;101346.75;5051759;28;20055;-28
2023/12/16 08:40:55;;;;;;;9.40;5.50;;;;;;;2.63;93.84;101337.00;5051398;28;20397;-28
2023/12/16 08:43:21;;;;;;;9.73;5.30;;;;;;;2.51;96.42;101341.34;5051540;28;20127;-28
2023/12/16 08:45:46;;;;;;;9.48;5.50;;;;;;;3.42;93.12;101329.28;5051363;28;20072;-28
2023/12/16 08:48:11;;;;;;;11.75;6.55;;;;;;;3.02;93.77;101345.47;5051134;28;20055;-28
2023/12/16 08:50:37;;;;;;;12.25;6.80;;;;;;;2.99;93.89;101340.44;5051341;28;20046;-28
2023/12/16 08:53:03;;;;;;;10.45;6.07;;;;;;;2.62;93.54;101337.94;5051416;28;20055;-29
2023/12/16 08:55:28;;;;;;;10.05;5.97;;;;;;;2.70;93.24;101346.94;5051258;28;20108;-27
2023/12/16 08:57:53;;;;;;;8.18;5.70;;;;;;;2.78;92.83;101342.88;5049806;28;20032;-28
2023/12/16 09:00:19;;;;;;;9.88;5.68;;;;;;;3.34;92.70;101340.41;5050964;28;20031;-27
2023/12/16 09:02:44;;;;;;;8.57;5.47;;;;;;;3.16;92.23;101337.41;5051124;28;20025;-28
2023/12/16 09:05:10;;;;;;;9.88;5.30;;;;;;;2.82;93.70;101342.56;5051031;28;20025;-30
2023/12/16 09:07:35;;;;;;;11.18;5.93;;;;;;;2.83;93.70;101341.59;5051263;28;20043;-28
2023/12/16 09:10:01;;;;;;;8.60;5.60;;;;;;;2.66;93.42;101332.31;5050989;28;20094;-28
2023/12/16 09:12:26;;;;;;;11.77;6.32;;;;;;;2.83;93.06;101338.97;5050959;28;20025;-28
2023/12/16 09:14:52;;;;;;;9.95;6.07;;;;;;;2.68;93.27;101326.94;5050957;28;20021;-28
2023/12/16 09:17:17;;;;;;;12.57;7.70;;;;;;;2.74;92.91;101322.09;5050998;28;20100;-30
2023/12/16 09:19:42;;;;;;;12.57;7.57;;;;;;;2.76;93.29;101327.25;5050953;28;20032;-29
2023/12/16 09:22:08;;;;;;;13.80;7.55;;;;;;;2.81;93.04;101332.16;5050982;28;20499;-28
2023/12/16 09:24:33;;;;;;;13.65;7.97;;;;;;;2.98;92.75;101329.09;5050971;28;20040;-29
2023/12/16 09:26:59;;;;;;;14.30;8.90;;;;;;;2.86;91.45;101344.00;5051095;28;20025;-26
2023/12/16 09:29:25;;;;;;;14.45;8.68;;;;;;;2.69;92.88;101326.84;5050716;28;20111;-29
2023/12/16 09:31:51;;;;;;;13.80;8.70;;;;;;;2.72;93.12;101329.25;5050654;28;20098;-28
2023/12/16 09:34:16;;;;;;;15.98;9.30;;;;;;;2.84;92.39;101324.88;5050325;28;20053;-28
2023/12/16 09:36:42;;;;;;;13.77;9.10;;;;;;;2.82;92.95;101320.66;5050681;28;20473;-29
2023/12/16 09:39:10;;;;;;;15.88;9.30;;;;;;;2.73;92.87;101328.28;5054218;28;20021;-29
2023/12/16 09:41:42;;;;;;;14.80;9.10;;;;;;;2.43;94.53;101325.28;5054720;28;20400;-28
2023/12/16 09:44:08;;;;;;;15.35;9.27;;;;;;;2.56;94.42;101323.44;5054831;28;20455;-28
2023/12/16 09:46:34;;;;;;;15.88;9.85;;;;;;;2.92;94.10;101334.81;5054669;28;20530;-28
2023/12/16 09:49:00;;;;;;;15.52;9.40;;;;;;;2.92;93.55;101324.28;5054424;28;20021;-28
2023/12/16 09:51:26;;;;;;;16.45;10.20;;;;;;;3.11;92.77;101329.84;5054138;28;20405;-30
2023/12/16 09:53:52;;;;;;;18.67;9.70;;;;;;;3.17;92.33;101335.59;5054334;28;20425;-30
2023/12/16 09:56:18;;;;;;;16.00;9.80;;;;;;;3.01;91.99;101323.63;5054556;28;20032;-29
2023/12/16 09:58:46;;;;;;;13.82;9.05;;;;;;;3.09;92.26;101323.03;5054146;28;20021;-29
2023/12/16 10:01:12;;;;;;;19.15;9.70;;;;;;;3.52;91.30;101330.25;5054472;28;20014;-28
2023/12/16 10:03:39;;;;;;;15.77;9.30;;;;;;;3.28;91.63;101322.47;5054695;28;20061;-29
2023/12/16 10:06:09;;;;;;;13.50;8.75;;;;;;;3.24;91.97;101321.88;5054622;28;20037;-29
2023/12/16 10:08:36;;;;;;;14.90;8.23;;;;;;;3.37;90.95;101311.25;5054161;28;20536;-27
2023/12/16 10:11:02;;;;;;;12.93;8.05;;;;;;;3.41;90.95;101322.34;5054457;28;20107;-28
2023/12/16 10:13:30;;;;;;;12.93;7.60;;;;;;;3.29;92.54;101324.13;5054159;28;20561;-29
2023/12/16 10:15:56;;;;;;;12.10;6.80;;;;;;;3.32;92.04;101335.25;5054329;28;20429;-29
2023/12/16 10:18:22;;;;;;;11.48;6.95;;;;;;;3.23;92.27;101325.44;5054208;28;20369;-28
2023/12/16 10:20:48;;;;;;;12.05;7.00;;;;;;;3.28;92.30;101327.72;5048149;28;20022;-28
2023/12/16 10:23:13;;;;;;;13.23;7.80;;;;;;;3.28;92.37;101333.81;5036165;28;20033;-29
2023/12/16 10:25:40;;;;;;;13.35;7.30;;;;;;;3.23;91.91;101324.59;5034370;28;20390;-28
2023/12/16 10:28:06;;;;;;;10.55;6.68;;;;;;;3.44;91.93;101336.09;5033874;28;20052;-29
2023/12/16 10:30:32;;;;;;;13.35;6.68;;;;;;;3.53;90.91;101329.31;5034465;28;20052;-28
2023/12/16 10:33:02;;;;;;;9.93;6.43;;;;;;;3.29;91.38;101324.13;5033942;28;20421;-28
2023/12/16 10:35:28;;;;;;;9.00;6.00;;;;;;;3.59;91.12;101331.44;5033811;28;20044;-30
2023/12/16 10:37:53;;;;;;;9.35;5.97;;;;;;;3.58;91.17;101329.78;5033599;28;20063;-29
2023/12/16 10:40:19;;;;;;;8.50;5.40;;;;;;;3.50;90.26;101329.53;5033217;28;20029;-29
2023/12/16 10:42:44;;;;;;;10.05;5.65;;;;;;;3.38;91.02;101323.44;5033720;28;20120;-29
2023/12/16 10:45:11;;;;;;;9.85;5.85;;;;;;;3.45;90.20;101324.63;5033624;28;20115;-29
2023/12/16 10:47:37;;;;;;;9.80;5.88;;;;;;;3.21;91.18;101326.50;5033848;28;20079;-31
2023/12/16 10:50:04;;;;;;;11.63;7.03;;;;;;;3.27;91.64;101326.88;5032293;28;20033;-29
2023/12/16 10:52:37;;;;;;;8.85;5.80;;;;;;;3.31;91.00;101316.94;5033931;28;20027;-29
2023/12/16 10:55:06;;;;;;;10.90;6.38;;;;;;;3.27;90.76;101323.41;5033778;28;20087;-29
2023/12/16 10:57:47;;;;;;;13.68;6.63;;;;;;;3.36;91.35;101330.59;5033533;28;20025;-28
2023/12/16 11:00:20;;;;;;;8.73;5.78;;;;;;;3.41;91.02;101315.31;5049754;28;20025;-29
2023/12/16 11:03:04;;;;;;;12.68;7.38;;;;;;;3.25;92.18;101320.88;5053296;28;20021;-29
2023/12/16 11:05:36;;;;;;;13.40;7.30;;;;;;;3.40;91.93;101318.03;5053235;28;20492;-30
2023/12/16 11:08:02;;;;;;;10.55;6.72;;;;;;;3.43;91.30;101321.28;5053481;28;20049;-29
2023/12/16 11:10:32;;;;;;;11.45;7.00;;;;;;;3.48;91.11;101324.41;5053452;28;20382;-26
2023/12/16 11:13:00;;;;;;;10.93;6.38;;;;;;;3.59;91.01;101315.66;5053544;28;20139;-29
2023/12/16 11:15:26;;;;;;;12.02;6.65;;;;;;;3.71;91.68;101314.72;5053952;28;20033;-29
2023/12/16 11:18:07;;;;;;;11.20;5.93;;;;;;;3.71;90.43;101308.59;5053631;28;20044;-30
2023/12/16 11:20:42;;;;;;;10.32;6.22;;;;;;;3.68;90.64;101314.94;5053579;28;20178;-30
2023/12/16 11:23:10;;;;;;;9.70;5.90;;;;;;;3.57;90.69;101311.47;5053343;28;20044;-28
2023/12/16 11:25:35;;;;;;;7.70;5.10;;;;;;;3.65;91.39;101320.44;5053200;28;20401;-29